sensor_id;sensor_type;location;lat;lon;timestamp;P1;durP1;ratioP1;P2;durP2;ratioP2
22024;SDS011;11176;51.448;6.650;2023-06-22T00:02:25;9.23;;;5.32;;
22024;SDS011;11176;51.448;6.650;2023-06-22T00:04:51;6.75;;;5.15;;
22024;SDS011;11176;51.448;6.650;2023-06-22T00:07:18;7.38;;;5.15;;
22024;SDS011;11176;51.448;6.650;2023-06-22T00:09:44;7.95;;;5.53;;
22024;SDS011;11176;51.448;6.650;2023-06-22T00:12:11;7.82;;;5.47;;
22024;SDS011;11176;51.448;6.650;2023-06-22T00:14:37;8.15;;;5.88;;
22024;SDS011;11176;51.448;6.650;2023-06-22T00:17:04;8.30;;;5.57;;
22024;SDS011;11176;51.448;6.650;2023-06-22T00:19:31;9.27;;;5.70;;
22024;SDS011;11176;51.448;6.650;2023-06-22T00:21:58;9.63;;;5.63;;
22024;SDS011;11176;51.448;6.650;2023-06-22T00:24:26;8.35;;;5.53;;
22024;SDS011;11176;51.448;6.650;2023-06-22T00:26:53;8.85;;;5.97;;
22024;SDS011;11176;51.448;6.650;2023-06-22T00:29:19;7.97;;;5.40;;
22024;SDS011;11176;51.448;6.650;2023-06-22T00:31:47;8.10;;;5.40;;
22024;SDS011;11176;51.448;6.650;2023-06-22T00:34:13;8.73;;;6.05;;
22024;SDS011;11176;51.448;6.650;2023-06-22T00:36:40;7.85;;;5.10;;
22024;SDS011;11176;51.448;6.650;2023-06-22T00:39:07;10.38;;;6.40;;
22024;SDS011;11176;51.448;6.650;2023-06-22T00:41:35;9.88;;;6.90;;
22024;SDS011;11176;51.448;6.650;2023-06-22T00:44:03;10.40;;;6.57;;
22024;SDS011;11176;51.448;6.650;2023-06-22T00:46:30;7.47;;;5.65;;
22024;SDS011;11176;51.448;6.650;2023-06-22T00:48:58;9.75;;;6.93;;
22024;SDS011;11176;51.448;6.650;2023-06-22T00:51:27;9.00;;;6.07;;
22024;SDS011;11176;51.448;6.650;2023-06-22T00:53:54;8.35;;;6.07;;
22024;SDS011;11176;51.448;6.650;2023-06-22T00:56:21;8.82;;;5.25;;
22024;SDS011;11176;51.448;6.650;2023-06-22T00:58:51;7.28;;;5.53;;
22024;SDS011;11176;51.448;6.650;2023-06-22T01:01:19;8.63;;;5.50;;
22024;SDS011;11176;51.448;6.650;2023-06-22T01:03:50;8.32;;;5.22;;
22024;SDS011;11176;51.448;6.650;2023-06-22T01:06:22;8.45;;;5.90;;
22024;SDS011;11176;51.448;6.650;2023-06-22T01:11:44;9.80;;;5.60;;
22024;SDS011;11176;51.448;6.650;2023-06-22T01:14:18;10.20;;;5.72;;
22024;SDS011;11176;51.448;6.650;2023-06-22T01:16:51;8.30;;;5.55;;
22024;SDS011;11176;51.448;6.650;2023-06-22T01:19:43;8.50;;;5.78;;
22024;SDS011;11176;51.448;6.650;2023-06-22T01:22:15;8.63;;;5.85;;
22024;SDS011;11176;51.448;6.650;2023-06-22T01:25:07;8.52;;;5.90;;
22024;SDS011;11176;51.448;6.650;2023-06-22T01:30:29;8.88;;;5.47;;
22024;SDS011;11176;51.448;6.650;2023-06-22T01:32:57;8.35;;;6.20;;
22024;SDS011;11176;51.448;6.650;2023-06-22T01:35:24;8.38;;;5.95;;
22024;SDS011;11176;51.448;6.650;2023-06-22T01:37:51;8.55;;;5.95;;
22024;SDS011;11176;51.448;6.650;2023-06-22T01:40:18;9.00;;;6.78;;
22024;SDS011;11176;51.448;6.650;2023-06-22T01:42:46;9.57;;;6.75;;
22024;SDS011;11176;51.448;6.650;2023-06-22T01:45:14;9.20;;;6.00;;
22024;SDS011;11176;51.448;6.650;2023-06-22T01:47:41;9.48;;;6.22;;
22024;SDS011;11176;51.448;6.650;2023-06-22T01:50:08;8.38;;;5.80;;
22024;SDS011;11176;51.448;6.650;2023-06-22T01:52:35;9.45;;;6.13;;
22024;SDS011;11176;51.448;6.650;2023-06-22T01:55:02;9.23;;;6.10;;
22024;SDS011;11176;51.448;6.650;2023-06-22T01:57:30;11.85;;;6.60;;
22024;SDS011;11176;51.448;6.650;2023-06-22T02:00:03;9.35;;;6.93;;
22024;SDS011;11176;51.448;6.650;2023-06-22T02:02:43;9.10;;;6.72;;
22024;SDS011;11176;51.448;6.650;2023-06-22T02:07:52;11.05;;;6.93;;
22024;SDS011;11176;51.448;6.650;2023-06-22T02:10:30;9.98;;;6.78;;
22024;SDS011;11176;51.448;6.650;2023-06-22T02:12:58;9.57;;;7.10;;
22024;SDS011;11176;51.448;6.650;2023-06-22T02:15:26;9.73;;;6.60;;
22024;SDS011;11176;51.448;6.650;2023-06-22T02:17:54;10.90;;;7.13;;
22024;SDS011;11176;51.448;6.650;2023-06-22T02:20:20;9.05;;;6.75;;
22024;SDS011;11176;51.448;6.650;2023-06-22T02:22:47;8.23;;;7.13;;
22024;SDS011;11176;51.448;6.650;2023-06-22T02:25:13;9.35;;;6.93;;
22024;SDS011;11176;51.448;6.650;2023-06-22T02:27:40;10.93;;;7.50;;
22024;SDS011;11176;51.448;6.650;2023-06-22T02:30:08;9.57;;;7.07;;
22024;SDS011;11176;51.448;6.650;2023-06-22T02:32:38;11.43;;;8.07;;
22024;SDS011;11176;51.448;6.650;2023-06-22T02:35:08;10.90;;;7.63;;
22024;SDS011;11176;51.448;6.650;2023-06-22T02:37:35;10.20;;;7.90;;
22024;SDS011;11176;51.448;6.650;2023-06-22T02:40:06;12.05;;;8.07;;
22024;SDS011;11176;51.448;6.650;2023-06-22T02:42:35;12.43;;;7.88;;
22024;SDS011;11176;51.448;6.650;2023-06-22T02:45:02;8.07;;;6.78;;
22024;SDS011;11176;51.448;6.650;2023-06-22T02:47:29;9.68;;;7.47;;
22024;SDS011;11176;51.448;6.650;2023-06-22T02:49:56;10.93;;;7.53;;
22024;SDS011;11176;51.448;6.650;2023-06-22T02:52:24;9.25;;;6.68;;
22024;SDS011;11176;51.448;6.650;2023-06-22T02:54:50;9.10;;;6.85;;
22024;SDS011;11176;51.448;6.650;2023-06-22T02:57:17;10.13;;;7.82;;
22024;SDS011;11176;51.448;6.650;2023-06-22T02:59:43;9.63;;;7.65;;
22024;SDS011;11176;51.448;6.650;2023-06-22T03:02:11;10.95;;;7.63;;
22024;SDS011;11176;51.448;6.650;2023-06-22T03:04:39;10.57;;;7.60;;
22024;SDS011;11176;51.448;6.650;2023-06-22T03:07:05;13.00;;;8.20;;
22024;SDS011;11176;51.448;6.650;2023-06-22T03:09:33;11.55;;;7.82;;
22024;SDS011;11176;51.448;6.650;2023-06-22T03:12:00;10.77;;;8.02;;
22024;SDS011;11176;51.448;6.650;2023-06-22T03:14:48;11.35;;;8.15;;
22024;SDS011;11176;51.448;6.650;2023-06-22T03:17:14;9.57;;;7.97;;
22024;SDS011;11176;51.448;6.650;2023-06-22T03:19:41;10.57;;;8.10;;
22024;SDS011;11176;51.448;6.650;2023-06-22T03:22:08;13.57;;;8.48;;
22024;SDS011;11176;51.448;6.650;2023-06-22T03:24:36;10.45;;;7.82;;
22024;SDS011;11176;51.448;6.650;2023-06-22T03:27:05;11.07;;;8.35;;
22024;SDS011;11176;51.448;6.650;2023-06-22T03:29:33;11.00;;;8.20;;
22024;SDS011;11176;51.448;6.650;2023-06-22T03:32:00;12.15;;;8.98;;
22024;SDS011;11176;51.448;6.650;2023-06-22T03:34:27;12.32;;;8.70;;
22024;SDS011;11176;51.448;6.650;2023-06-22T03:36:53;13.18;;;8.93;;
22024;SDS011;11176;51.448;6.650;2023-06-22T03:39:20;11.30;;;9.00;;
22024;SDS011;11176;51.448;6.650;2023-06-22T03:41:47;11.77;;;9.13;;
22024;SDS011;11176;51.448;6.650;2023-06-22T03:44:13;11.95;;;9.20;;
22024;SDS011;11176;51.448;6.650;2023-06-22T03:46:41;12.25;;;9.20;;
22024;SDS011;11176;51.448;6.650;2023-06-22T03:49:08;12.13;;;8.88;;
22024;SDS011;11176;51.448;6.650;2023-06-22T03:51:34;13.38;;;9.07;;
22024;SDS011;11176;51.448;6.650;2023-06-22T03:54:01;13.38;;;9.52;;
22024;SDS011;11176;51.448;6.650;2023-06-22T03:56:27;13.52;;;9.75;;
22024;SDS011;11176;51.448;6.650;2023-06-22T03:58:54;11.95;;;9.55;;
22024;SDS011;11176;51.448;6.650;2023-06-22T04:01:20;12.60;;;9.93;;
22024;SDS011;11176;51.448;6.650;2023-06-22T04:03:47;11.68;;;9.52;;
22024;SDS011;11176;51.448;6.650;2023-06-22T04:06:15;11.02;;;8.70;;
22024;SDS011;11176;51.448;6.650;2023-06-22T04:08:42;12.75;;;9.27;;
22024;SDS011;11176;51.448;6.650;2023-06-22T04:11:08;12.00;;;9.60;;
22024;SDS011;11176;51.448;6.650;2023-06-22T04:13:35;11.07;;;9.27;;
22024;SDS011;11176;51.448;6.650;2023-06-22T04:16:02;13.18;;;10.20;;
22024;SDS011;11176;51.448;6.650;2023-06-22T04:18:28;12.07;;;9.38;;
22024;SDS011;11176;51.448;6.650;2023-06-22T04:20:55;12.73;;;9.45;;
22024;SDS011;11176;51.448;6.650;2023-06-22T04:23:22;12.48;;;9.60;;
22024;SDS011;11176;51.448;6.650;2023-06-22T04:25:48;11.38;;;9.18;;
22024;SDS011;11176;51.448;6.650;2023-06-22T04:28:14;13.55;;;10.75;;
22024;SDS011;11176;51.448;6.650;2023-06-22T04:30:41;11.10;;;9.10;;
22024;SDS011;11176;51.448;6.650;2023-06-22T04:33:13;16.52;;;11.52;;
22024;SDS011;11176;51.448;6.650;2023-06-22T04:35:40;11.20;;;9.40;;
22024;SDS011;11176;51.448;6.650;2023-06-22T04:38:07;14.25;;;10.82;;
22024;SDS011;11176;51.448;6.650;2023-06-22T04:40:34;14.77;;;10.63;;
22024;SDS011;11176;51.448;6.650;2023-06-22T04:43:00;15.70;;;10.65;;
22024;SDS011;11176;51.448;6.650;2023-06-22T04:45:28;15.02;;;10.38;;
22024;SDS011;11176;51.448;6.650;2023-06-22T04:47:55;14.90;;;10.13;;
22024;SDS011;11176;51.448;6.650;2023-06-22T04:50:22;14.75;;;11.80;;
22024;SDS011;11176;51.448;6.650;2023-06-22T04:52:50;12.75;;;10.65;;
22024;SDS011;11176;51.448;6.650;2023-06-22T04:55:17;14.27;;;11.40;;
22024;SDS011;11176;51.448;6.650;2023-06-22T04:57:46;12.30;;;9.98;;
22024;SDS011;11176;51.448;6.650;2023-06-22T05:00:17;15.63;;;10.55;;
22024;SDS011;11176;51.448;6.650;2023-06-22T05:02:46;15.70;;;10.85;;
22024;SDS011;11176;51.448;6.650;2023-06-22T05:05:13;13.15;;;9.65;;
22024;SDS011;11176;51.448;6.650;2023-06-22T05:07:41;13.07;;;10.15;;
22024;SDS011;11176;51.448;6.650;2023-06-22T05:10:09;12.02;;;9.48;;
22024;SDS011;11176;51.448;6.650;2023-06-22T05:12:39;10.98;;;8.82;;
22024;SDS011;11176;51.448;6.650;2023-06-22T05:15:07;14.88;;;9.65;;
22024;SDS011;11176;51.448;6.650;2023-06-22T05:17:34;12.10;;;9.98;;
22024;SDS011;11176;51.448;6.650;2023-06-22T05:20:02;13.70;;;9.75;;
22024;SDS011;11176;51.448;6.650;2023-06-22T05:22:32;13.05;;;10.52;;
22024;SDS011;11176;51.448;6.650;2023-06-22T05:24:59;14.82;;;11.52;;
22024;SDS011;11176;51.448;6.650;2023-06-22T05:27:25;13.68;;;10.90;;
22024;SDS011;11176;51.448;6.650;2023-06-22T05:29:52;15.75;;;10.80;;
22024;SDS011;11176;51.448;6.650;2023-06-22T05:32:19;9.25;;;7.35;;
22024;SDS011;11176;51.448;6.650;2023-06-22T05:34:45;12.73;;;7.60;;
22024;SDS011;11176;51.448;6.650;2023-06-22T05:37:13;15.75;;;9.60;;
22024;SDS011;11176;51.448;6.650;2023-06-22T05:39:39;12.68;;;9.70;;
22024;SDS011;11176;51.448;6.650;2023-06-22T05:42:06;15.50;;;10.23;;
22024;SDS011;11176;51.448;6.650;2023-06-22T05:44:36;12.93;;;10.23;;
22024;SDS011;11176;51.448;6.650;2023-06-22T05:47:03;11.98;;;10.02;;
22024;SDS011;11176;51.448;6.650;2023-06-22T05:49:30;10.82;;;9.23;;
22024;SDS011;11176;51.448;6.650;2023-06-22T05:51:59;11.32;;;9.73;;
22024;SDS011;11176;51.448;6.650;2023-06-22T05:54:29;14.80;;;10.05;;
22024;SDS011;11176;51.448;6.650;2023-06-22T05:56:56;12.55;;;10.55;;
22024;SDS011;11176;51.448;6.650;2023-06-22T05:59:22;13.57;;;10.48;;
22024;SDS011;11176;51.448;6.650;2023-06-22T06:01:49;11.27;;;9.60;;
22024;SDS011;11176;51.448;6.650;2023-06-22T06:04:17;14.05;;;10.27;;
22024;SDS011;11176;51.448;6.650;2023-06-22T06:06:45;13.82;;;10.35;;
22024;SDS011;11176;51.448;6.650;2023-06-22T06:09:14;13.82;;;10.85;;
22024;SDS011;11176;51.448;6.650;2023-06-22T06:11:40;10.90;;;9.57;;
22024;SDS011;11176;51.448;6.650;2023-06-22T06:14:07;12.43;;;10.55;;
22024;SDS011;11176;51.448;6.650;2023-06-22T06:16:34;11.90;;;10.32;;
22024;SDS011;11176;51.448;6.650;2023-06-22T06:19:00;13.02;;;10.50;;
22024;SDS011;11176;51.448;6.650;2023-06-22T06:21:27;14.55;;;11.15;;
22024;SDS011;11176;51.448;6.650;2023-06-22T06:23:56;15.40;;;12.27;;
22024;SDS011;11176;51.448;6.650;2023-06-22T06:26:22;14.35;;;11.18;;
22024;SDS011;11176;51.448;6.650;2023-06-22T06:28:56;12.70;;;10.63;;
22024;SDS011;11176;51.448;6.650;2023-06-22T06:31:23;16.27;;;11.68;;
22024;SDS011;11176;51.448;6.650;2023-06-22T06:33:50;16.90;;;11.38;;
22024;SDS011;11176;51.448;6.650;2023-06-22T06:36:17;13.75;;;11.60;;
22024;SDS011;11176;51.448;6.650;2023-06-22T06:38:43;14.95;;;11.73;;
22024;SDS011;11176;51.448;6.650;2023-06-22T06:41:10;18.10;;;11.73;;
22024;SDS011;11176;51.448;6.650;2023-06-22T06:43:36;19.63;;;13.27;;
22024;SDS011;11176;51.448;6.650;2023-06-22T06:46:02;15.88;;;12.45;;
22024;SDS011;11176;51.448;6.650;2023-06-22T06:48:29;17.58;;;12.23;;
22024;SDS011;11176;51.448;6.650;2023-06-22T06:50:56;16.30;;;12.65;;
22024;SDS011;11176;51.448;6.650;2023-06-22T06:53:23;16.40;;;11.93;;
22024;SDS011;11176;51.448;6.650;2023-06-22T06:55:50;15.68;;;11.85;;
22024;SDS011;11176;51.448;6.650;2023-06-22T06:58:16;13.65;;;10.95;;
22024;SDS011;11176;51.448;6.650;2023-06-22T07:00:43;15.45;;;11.05;;
22024;SDS011;11176;51.448;6.650;2023-06-22T07:03:10;12.57;;;10.68;;
22024;SDS011;11176;51.448;6.650;2023-06-22T07:05:36;13.85;;;11.20;;
22024;SDS011;11176;51.448;6.650;2023-06-22T07:08:03;16.83;;;12.93;;
22024;SDS011;11176;51.448;6.650;2023-06-22T07:10:29;18.45;;;13.40;;
22024;SDS011;11176;51.448;6.650;2023-06-22T07:12:56;20.98;;;14.07;;
22024;SDS011;11176;51.448;6.650;2023-06-22T07:15:24;18.13;;;12.93;;
22024;SDS011;11176;51.448;6.650;2023-06-22T07:17:50;18.08;;;12.70;;
22024;SDS011;11176;51.448;6.650;2023-06-22T07:20:17;18.33;;;12.48;;
22024;SDS011;11176;51.448;6.650;2023-06-22T07:22:45;21.70;;;14.27;;
22024;SDS011;11176;51.448;6.650;2023-06-22T07:25:12;18.60;;;14.57;;
22024;SDS011;11176;51.448;6.650;2023-06-22T07:27:45;19.63;;;14.65;;
22024;SDS011;11176;51.448;6.650;2023-06-22T07:30:14;18.53;;;13.50;;
22024;SDS011;11176;51.448;6.650;2023-06-22T07:32:40;14.70;;;11.65;;
22024;SDS011;11176;51.448;6.650;2023-06-22T07:35:07;12.82;;;10.80;;
22024;SDS011;11176;51.448;6.650;2023-06-22T07:37:34;13.50;;;10.52;;
22024;SDS011;11176;51.448;6.650;2023-06-22T07:40:02;13.60;;;11.07;;
22024;SDS011;11176;51.448;6.650;2023-06-22T07:42:35;17.20;;;11.30;;
22024;SDS011;11176;51.448;6.650;2023-06-22T07:45:02;12.20;;;10.40;;
22024;SDS011;11176;51.448;6.650;2023-06-22T07:47:29;13.82;;;11.13;;
22024;SDS011;11176;51.448;6.650;2023-06-22T07:49:58;13.95;;;10.88;;
22024;SDS011;11176;51.448;6.650;2023-06-22T07:52:28;13.70;;;10.90;;
22024;SDS011;11176;51.448;6.650;2023-06-22T07:54:55;12.93;;;10.88;;
22024;SDS011;11176;51.448;6.650;2023-06-22T07:57:21;14.40;;;10.75;;
22024;SDS011;11176;51.448;6.650;2023-06-22T07:59:48;15.48;;;10.57;;
22024;SDS011;11176;51.448;6.650;2023-06-22T08:02:14;13.57;;;11.30;;
22024;SDS011;11176;51.448;6.650;2023-06-22T08:04:41;14.75;;;10.85;;
22024;SDS011;11176;51.448;6.650;2023-06-22T08:07:08;12.88;;;9.98;;
22024;SDS011;11176;51.448;6.650;2023-06-22T08:09:34;12.23;;;10.52;;
22024;SDS011;11176;51.448;6.650;2023-06-22T08:12:01;14.63;;;10.82;;
22024;SDS011;11176;51.448;6.650;2023-06-22T08:14:29;15.13;;;11.10;;
22024;SDS011;11176;51.448;6.650;2023-06-22T08:16:56;13.52;;;11.23;;
22024;SDS011;11176;51.448;6.650;2023-06-22T08:19:22;14.85;;;11.18;;
22024;SDS011;11176;51.448;6.650;2023-06-22T08:21:49;14.13;;;11.10;;
22024;SDS011;11176;51.448;6.650;2023-06-22T08:24:16;15.05;;;12.57;;
22024;SDS011;11176;51.448;6.650;2023-06-22T08:26:43;13.25;;;11.57;;
22024;SDS011;11176;51.448;6.650;2023-06-22T08:29:09;14.93;;;11.82;;
22024;SDS011;11176;51.448;6.650;2023-06-22T08:31:35;16.33;;;11.18;;
22024;SDS011;11176;51.448;6.650;2023-06-22T08:34:02;16.48;;;12.73;;
22024;SDS011;11176;51.448;6.650;2023-06-22T08:36:29;17.15;;;11.95;;
22024;SDS011;11176;51.448;6.650;2023-06-22T08:38:58;16.50;;;11.93;;
22024;SDS011;11176;51.448;6.650;2023-06-22T08:41:28;16.70;;;11.93;;
22024;SDS011;11176;51.448;6.650;2023-06-22T08:43:55;15.98;;;12.35;;
22024;SDS011;11176;51.448;6.650;2023-06-22T08:46:21;20.55;;;12.75;;
22024;SDS011;11176;51.448;6.650;2023-06-22T08:48:51;17.50;;;12.20;;
22024;SDS011;11176;51.448;6.650;2023-06-22T08:51:17;17.05;;;12.48;;
22024;SDS011;11176;51.448;6.650;2023-06-22T08:53:43;18.77;;;12.93;;
22024;SDS011;11176;51.448;6.650;2023-06-22T08:56:11;14.88;;;13.27;;
22024;SDS011;11176;51.448;6.650;2023-06-22T08:58:37;16.33;;;12.80;;
22024;SDS011;11176;51.448;6.650;2023-06-22T09:01:04;19.60;;;13.85;;
22024;SDS011;11176;51.448;6.650;2023-06-22T09:03:30;15.95;;;13.07;;
22024;SDS011;11176;51.448;6.650;2023-06-22T09:05:59;19.55;;;13.40;;
22024;SDS011;11176;51.448;6.650;2023-06-22T09:08:25;18.90;;;12.90;;
22024;SDS011;11176;51.448;6.650;2023-06-22T09:10:52;14.23;;;12.57;;
22024;SDS011;11176;51.448;6.650;2023-06-22T09:13:18;13.65;;;11.93;;
22024;SDS011;11176;51.448;6.650;2023-06-22T09:15:45;15.13;;;12.65;;
22024;SDS011;11176;51.448;6.650;2023-06-22T09:18:12;18.45;;;13.23;;
22024;SDS011;11176;51.448;6.650;2023-06-22T09:20:39;18.10;;;13.32;;
22024;SDS011;11176;51.448;6.650;2023-06-22T09:23:06;15.88;;;13.18;;
22024;SDS011;11176;51.448;6.650;2023-06-22T09:25:32;17.02;;;13.77;;
22024;SDS011;11176;51.448;6.650;2023-06-22T09:27:59;17.73;;;13.80;;
22024;SDS011;11176;51.448;6.650;2023-06-22T09:30:25;15.35;;;13.60;;
22024;SDS011;11176;51.448;6.650;2023-06-22T09:32:52;15.75;;;13.18;;
22024;SDS011;11176;51.448;6.650;2023-06-22T09:35:18;19.60;;;13.25;;
22024;SDS011;11176;51.448;6.650;2023-06-22T09:37:46;19.80;;;13.50;;
22024;SDS011;11176;51.448;6.650;2023-06-22T09:40:12;17.25;;;12.68;;
22024;SDS011;11176;51.448;6.650;2023-06-22T09:42:41;19.98;;;14.30;;
22024;SDS011;11176;51.448;6.650;2023-06-22T09:45:08;17.70;;;13.40;;
22024;SDS011;11176;51.448;6.650;2023-06-22T09:47:35;19.65;;;12.52;;
22024;SDS011;11176;51.448;6.650;2023-06-22T09:50:02;15.32;;;12.40;;
22024;SDS011;11176;51.448;6.650;2023-06-22T09:52:29;15.82;;;12.02;;
22024;SDS011;11176;51.448;6.650;2023-06-22T09:55:13;21.23;;;13.07;;
22024;SDS011;11176;51.448;6.650;2023-06-22T09:57:41;18.05;;;12.27;;
22024;SDS011;11176;51.448;6.650;2023-06-22T10:00:08;15.38;;;12.27;;
22024;SDS011;11176;51.448;6.650;2023-06-22T10:02:35;20.95;;;13.68;;
22024;SDS011;11176;51.448;6.650;2023-06-22T10:05:02;15.90;;;12.18;;
22024;SDS011;11176;51.448;6.650;2023-06-22T10:07:29;14.93;;;11.48;;
22024;SDS011;11176;51.448;6.650;2023-06-22T10:09:56;15.80;;;11.15;;
22024;SDS011;11176;51.448;6.650;2023-06-22T10:12:22;17.48;;;12.85;;
22024;SDS011;11176;51.448;6.650;2023-06-22T10:14:49;17.55;;;12.60;;
22024;SDS011;11176;51.448;6.650;2023-06-22T10:17:16;16.50;;;11.70;;
22024;SDS011;11176;51.448;6.650;2023-06-22T10:19:42;17.02;;;12.02;;
22024;SDS011;11176;51.448;6.650;2023-06-22T10:22:09;22.05;;;13.95;;
22024;SDS011;11176;51.448;6.650;2023-06-22T10:24:35;19.58;;;12.00;;
22024;SDS011;11176;51.448;6.650;2023-06-22T10:27:02;18.33;;;11.93;;
22024;SDS011;11176;51.448;6.650;2023-06-22T10:29:28;13.70;;;11.30;;
22024;SDS011;11176;51.448;6.650;2023-06-22T10:31:55;17.98;;;11.73;;
22024;SDS011;11176;51.448;6.650;2023-06-22T10:34:21;14.98;;;10.60;;
22024;SDS011;11176;51.448;6.650;2023-06-22T10:36:48;12.60;;;10.10;;
22024;SDS011;11176;51.448;6.650;2023-06-22T10:39:15;14.15;;;11.02;;
22024;SDS011;11176;51.448;6.650;2023-06-22T10:41:41;14.48;;;11.07;;
22024;SDS011;11176;51.448;6.650;2023-06-22T10:44:08;14.80;;;10.38;;
22024;SDS011;11176;51.448;6.650;2023-06-22T10:46:35;16.48;;;11.40;;
22024;SDS011;11176;51.448;6.650;2023-06-22T10:49:01;12.90;;;10.40;;
22024;SDS011;11176;51.448;6.650;2023-06-22T10:51:28;16.48;;;11.75;;
22024;SDS011;11176;51.448;6.650;2023-06-22T10:53:55;12.80;;;10.77;;
22024;SDS011;11176;51.448;6.650;2023-06-22T10:56:22;13.88;;;10.55;;
22024;SDS011;11176;51.448;6.650;2023-06-22T10:58:49;11.85;;;9.70;;
22024;SDS011;11176;51.448;6.650;2023-06-22T11:01:15;15.40;;;10.70;;
22024;SDS011;11176;51.448;6.650;2023-06-22T11:04:00;12.20;;;10.20;;
22024;SDS011;11176;51.448;6.650;2023-06-22T11:06:26;13.00;;;10.48;;
22024;SDS011;11176;51.448;6.650;2023-06-22T11:08:53;12.63;;;10.55;;
22024;SDS011;11176;51.448;6.650;2023-06-22T11:11:37;14.32;;;11.40;;
22024;SDS011;11176;51.448;6.650;2023-06-22T11:14:04;13.20;;;11.13;;
22024;SDS011;11176;51.448;6.650;2023-06-22T11:16:30;15.57;;;11.60;;
22024;SDS011;11176;51.448;6.650;2023-06-22T11:18:57;13.80;;;11.18;;
22024;SDS011;11176;51.448;6.650;2023-06-22T11:21:23;17.45;;;11.50;;
22024;SDS011;11176;51.448;6.650;2023-06-22T11:23:50;13.98;;;10.95;;
22024;SDS011;11176;51.448;6.650;2023-06-22T11:26:16;12.65;;;11.15;;
22024;SDS011;11176;51.448;6.650;2023-06-22T11:28:43;13.20;;;11.07;;
22024;SDS011;11176;51.448;6.650;2023-06-22T11:31:09;16.83;;;11.70;;
22024;SDS011;11176;51.448;6.650;2023-06-22T11:33:51;14.85;;;11.73;;
22024;SDS011;11176;51.448;6.650;2023-06-22T11:36:18;14.35;;;11.70;;
22024;SDS011;11176;51.448;6.650;2023-06-22T11:38:45;16.75;;;12.32;;
22024;SDS011;11176;51.448;6.650;2023-06-22T11:41:11;13.98;;;12.32;;
22024;SDS011;11176;51.448;6.650;2023-06-22T11:43:38;17.13;;;13.75;;
22024;SDS011;11176;51.448;6.650;2023-06-22T11:46:04;18.63;;;14.57;;
22024;SDS011;11176;51.448;6.650;2023-06-22T11:48:31;18.52;;;14.02;;
22024;SDS011;11176;51.448;6.650;2023-06-22T11:50:59;16.30;;;13.75;;
22024;SDS011;11176;51.448;6.650;2023-06-22T11:53:26;16.30;;;14.20;;
22024;SDS011;11176;51.448;6.650;2023-06-22T11:55:53;18.83;;;15.48;;
22024;SDS011;11176;51.448;6.650;2023-06-22T11:58:21;19.05;;;15.35;;
22024;SDS011;11176;51.448;6.650;2023-06-22T12:00:48;20.75;;;16.35;;
22024;SDS011;11176;51.448;6.650;2023-06-22T12:03:17;19.27;;;16.90;;
22024;SDS011;11176;51.448;6.650;2023-06-22T12:05:44;20.35;;;16.70;;
22024;SDS011;11176;51.448;6.650;2023-06-22T12:08:11;19.52;;;16.73;;
22024;SDS011;11176;51.448;6.650;2023-06-22T12:10:39;21.90;;;16.67;;
22024;SDS011;11176;51.448;6.650;2023-06-22T12:13:06;24.05;;;16.80;;
22024;SDS011;11176;51.448;6.650;2023-06-22T12:15:32;19.88;;;17.15;;
22024;SDS011;11176;51.448;6.650;2023-06-22T12:17:58;20.52;;;17.95;;
22024;SDS011;11176;51.448;6.650;2023-06-22T12:20:25;21.25;;;16.77;;
22024;SDS011;11176;51.448;6.650;2023-06-22T12:22:52;18.13;;;16.25;;
22024;SDS011;11176;51.448;6.650;2023-06-22T12:25:20;18.63;;;16.67;;
22024;SDS011;11176;51.448;6.650;2023-06-22T12:27:46;19.50;;;16.75;;
22024;SDS011;11176;51.448;6.650;2023-06-22T12:30:13;21.42;;;19.20;;
22024;SDS011;11176;51.448;6.650;2023-06-22T12:32:39;21.38;;;19.17;;
22024;SDS011;11176;51.448;6.650;2023-06-22T12:35:06;20.40;;;17.80;;
22024;SDS011;11176;51.448;6.650;2023-06-22T12:37:38;20.58;;;18.38;;
22024;SDS011;11176;51.448;6.650;2023-06-22T12:40:04;21.45;;;18.05;;
22024;SDS011;11176;51.448;6.650;2023-06-22T12:42:31;18.65;;;16.65;;
22024;SDS011;11176;51.448;6.650;2023-06-22T12:44:58;20.10;;;16.55;;
22024;SDS011;11176;51.448;6.650;2023-06-22T12:47:24;17.83;;;15.93;;
22024;SDS011;11176;51.448;6.650;2023-06-22T12:49:51;16.58;;;14.88;;
22024;SDS011;11176;51.448;6.650;2023-06-22T12:52:17;17.40;;;14.38;;
22024;SDS011;11176;51.448;6.650;2023-06-22T12:54:44;16.73;;;14.95;;
22024;SDS011;11176;51.448;6.650;2023-06-22T12:57:20;16.63;;;14.32;;
22024;SDS011;11176;51.448;6.650;2023-06-22T12:59:46;14.45;;;12.95;;
22024;SDS011;11176;51.448;6.650;2023-06-22T13:02:13;14.60;;;13.07;;
22024;SDS011;11176;51.448;6.650;2023-06-22T13:04:39;16.98;;;14.57;;
22024;SDS011;11176;51.448;6.650;2023-06-22T13:07:06;15.82;;;14.23;;
22024;SDS011;11176;51.448;6.650;2023-06-22T13:09:48;14.45;;;12.93;;
22024;SDS011;11176;51.448;6.650;2023-06-22T13:12:19;15.82;;;14.23;;
22024;SDS011;11176;51.448;6.650;2023-06-22T13:14:46;16.02;;;13.75;;
22024;SDS011;11176;51.448;6.650;2023-06-22T13:17:13;18.45;;;13.75;;
22024;SDS011;11176;51.448;6.650;2023-06-22T13:19:40;16.27;;;13.45;;
22024;SDS011;11176;51.448;6.650;2023-06-22T13:24:59;14.30;;;12.80;;
22024;SDS011;11176;51.448;6.650;2023-06-22T13:27:26;14.85;;;13.25;;
22024;SDS011;11176;51.448;6.650;2023-06-22T13:29:53;16.77;;;13.85;;
22024;SDS011;11176;51.448;6.650;2023-06-22T13:32:19;14.85;;;13.35;;
22024;SDS011;11176;51.448;6.650;2023-06-22T13:34:46;15.20;;;13.63;;
22024;SDS011;11176;51.448;6.650;2023-06-22T13:37:12;14.07;;;12.68;;
22024;SDS011;11176;51.448;6.650;2023-06-22T13:39:39;16.90;;;15.10;;
22024;SDS011;11176;51.448;6.650;2023-06-22T13:42:06;16.45;;;13.40;;
22024;SDS011;11176;51.448;6.650;2023-06-22T13:44:33;16.33;;;13.55;;
22024;SDS011;11176;51.448;6.650;2023-06-22T13:46:59;16.83;;;14.85;;
22024;SDS011;11176;51.448;6.650;2023-06-22T13:49:26;15.60;;;13.80;;
22024;SDS011;11176;51.448;6.650;2023-06-22T13:51:52;15.60;;;13.80;;
22024;SDS011;11176;51.448;6.650;2023-06-22T13:54:19;15.65;;;13.90;;
22024;SDS011;11176;51.448;6.650;2023-06-22T13:56:49;15.02;;;13.43;;
22024;SDS011;11176;51.448;6.650;2023-06-22T13:59:15;15.63;;;13.95;;
22024;SDS011;11176;51.448;6.650;2023-06-22T14:01:41;15.90;;;14.20;;
22024;SDS011;11176;51.448;6.650;2023-06-22T14:04:09;16.10;;;14.43;;
22024;SDS011;11176;51.448;6.650;2023-06-22T14:06:37;16.88;;;13.82;;
22024;SDS011;11176;51.448;6.650;2023-06-22T14:09:05;15.98;;;13.32;;
22024;SDS011;11176;51.448;6.650;2023-06-22T14:11:31;16.25;;;14.55;;
22024;SDS011;11176;51.448;6.650;2023-06-22T14:13:58;14.85;;;13.25;;
22024;SDS011;11176;51.448;6.650;2023-06-22T14:16:24;14.77;;;13.18;;
22024;SDS011;11176;51.448;6.650;2023-06-22T14:18:50;14.55;;;13.15;;
22024;SDS011;11176;51.448;6.650;2023-06-22T14:21:20;16.25;;;13.65;;
22024;SDS011;11176;51.448;6.650;2023-06-22T14:23:46;15.90;;;12.63;;
22024;SDS011;11176;51.448;6.650;2023-06-22T14:26:15;13.68;;;12.27;;
22024;SDS011;11176;51.448;6.650;2023-06-22T14:28:45;15.48;;;12.40;;
22024;SDS011;11176;51.448;6.650;2023-06-22T14:31:14;14.82;;;12.32;;
22024;SDS011;11176;51.448;6.650;2023-06-22T14:33:43;15.75;;;14.15;;
22024;SDS011;11176;51.448;6.650;2023-06-22T14:36:14;16.73;;;15.02;;
22024;SDS011;11176;51.448;6.650;2023-06-22T14:38:42;15.82;;;13.02;;
22024;SDS011;11176;51.448;6.650;2023-06-22T14:41:09;15.57;;;13.43;;
22024;SDS011;11176;51.448;6.650;2023-06-22T14:43:43;16.00;;;14.25;;